Time;durP1;ratioP1;P1;durP2;ratioP2;P2;SDS_P1;SDS_P2;PMS_P1;PMS_P2;Temp;Humidity;BMP_temperature;BMP_pressure;BME280_temperature;BME280_humidity;BME280_pressure;Samples;Min_cycle;Max_cycle;Signal;HPM_P1;HPM_P2
2023/12/26 00:00:28;;;;;;;13.13;6.07;;;;;;;6.92;100.00;99720.13;5008378;28;20193;-45
2023/12/26 00:02:53;;;;;;;10.05;5.25;;;;;;;6.92;100.00;99706.81;5000848;28;20193;-45
2023/12/26 00:05:19;;;;;;;10.80;5.90;;;;;;;6.91;100.00;99705.06;5004387;28;20173;-45
2023/12/26 00:07:45;;;;;;;7.20;4.97;;;;;;;6.92;100.00;99707.69;5003596;28;20187;-43
2023/12/26 00:10:11;;;;;;;11.85;5.55;;;;;;;6.97;100.00;99700.34;5000842;28;20188;-44
2023/12/26 00:12:36;;;;;;;8.48;4.68;;;;;;;6.98;100.00;99696.78;5004408;28;20209;-44
2023/12/26 00:15:02;;;;;;;12.07;4.47;;;;;;;7.05;100.00;99684.06;5001343;28;20195;-45
2023/12/26 00:17:28;;;;;;;7.43;4.35;;;;;;;7.03;100.00;99690.41;5001151;28;20184;-44
2023/12/26 00:19:53;;;;;;;14.13;4.43;;;;;;;7.03;100.00;99693.06;5003071;28;20681;-45
2023/12/26 00:22:19;;;;;;;9.00;3.97;;;;;;;7.13;100.00;99673.97;5003942;28;20209;-45
2023/12/26 00:24:46;;;;;;;11.07;3.72;;;;;;;7.15;100.00;99687.19;5002934;28;20212;-43
2023/12/26 00:27:11;;;;;;;7.70;3.00;;;;;;;7.14;100.00;99691.66;5001971;28;20172;-45
2023/12/26 00:29:37;;;;;;;10.45;3.22;;;;;;;7.16;100.00;99689.81;5003093;28;20206;-44
2023/12/26 00:32:03;;;;;;;10.65;3.20;;;;;;;7.23;100.00;99685.06;5000145;28;20340;-44
2023/12/26 00:34:28;;;;;;;9.70;3.58;;;;;;;7.26;100.00;99684.97;5000690;28;20196;-44
2023/12/26 00:36:54;;;;;;;7.03;2.70;;;;;;;7.28;100.00;99671.56;5001641;28;20253;-45
2023/12/26 00:39:20;;;;;;;8.95;3.03;;;;;;;7.27;100.00;99684.03;5006814;28;20181;-42
2023/12/26 00:41:46;;;;;;;14.38;3.53;;;;;;;7.25;100.00;99674.38;5007069;28;20188;-44
2023/12/26 00:44:11;;;;;;;12.13;2.78;;;;;;;7.25;100.00;99669.91;5000112;28;20255;-44
2023/12/26 00:46:39;;;;;;;12.70;2.97;;;;;;;7.28;100.00;99684.88;5001597;28;20181;-44
2023/12/26 00:49:04;;;;;;;9.88;2.83;;;;;;;7.22;100.00;99668.22;5003724;28;20173;-46
2023/12/26 00:51:30;;;;;;;11.95;2.83;;;;;;;7.22;100.00;99662.06;5014130;28;20169;-44
2023/12/26 00:53:56;;;;;;;8.02;2.50;;;;;;;7.18;100.00;99671.09;5000397;28;20215;-45
2023/12/26 00:56:22;;;;;;;11.90;2.80;;;;;;;7.21;100.00;99666.50;5001460;28;20581;-45
2023/12/26 00:58:48;;;;;;;11.35;2.45;;;;;;;7.21;100.00;99666.50;5006449;28;20204;-45
2023/12/26 01:01:14;;;;;;;10.38;2.38;;;;;;;7.19;100.00;99657.72;5000426;28;20607;-46
2023/12/26 01:03:39;;;;;;;12.68;2.65;;;;;;;7.20;100.00;99663.91;5005067;28;20193;-43
2023/12/26 01:06:05;;;;;;;11.10;1.98;;;;;;;7.20;100.00;99653.25;4999845;28;20247;-46
2023/12/26 01:08:31;;;;;;;10.30;2.22;;;;;;;7.20;100.00;99648.78;4999903;28;20177;-44
2023/12/26 01:10:57;;;;;;;9.35;2.35;;;;;;;7.19;100.00;99647.06;5005235;28;20236;-46
2023/12/26 01:13:22;;;;;;;5.63;1.90;;;;;;;7.23;100.00;99637.13;5003815;28;20757;-45
2023/12/26 01:15:49;;;;;;;10.02;2.47;;;;;;;7.27;100.00;99653.84;5006556;28;20188;-45
2023/12/26 01:18:14;;;;;;;8.07;1.92;;;;;;;7.29;100.00;99636.88;5000946;28;20213;-45
2023/12/26 01:20:40;;;;;;;5.28;1.88;;;;;;;7.25;100.00;99635.25;5005455;28;20176;-45
2023/12/26 01:23:06;;;;;;;8.93;1.95;;;;;;;7.27;100.00;99648.53;4999250;28;20204;-44
2023/12/26 01:25:31;;;;;;;10.57;1.85;;;;;;;7.31;100.00;99629.66;5001293;28;20183;-43
2023/12/26 01:27:57;;;;;;;8.82;1.60;;;;;;;7.29;100.00;99623.53;5005261;28;20267;-45
2023/12/26 01:30:23;;;;;;;7.75;1.92;;;;;;;7.31;100.00;99621.69;4999114;28;20254;-44
2023/12/26 01:32:48;;;;;;;10.35;2.33;;;;;;;7.31;100.00;99618.16;5000549;28;20216;-46
2023/12/26 01:35:14;;;;;;;9.02;1.80;;;;;;;7.33;100.00;99619.81;5002108;28;20639;-44
2023/12/26 01:37:41;;;;;;;13.43;2.20;;;;;;;7.27;100.00;99608.56;5003057;28;20226;-43
2023/12/26 01:40:07;;;;;;;7.53;1.77;;;;;;;7.26;100.00;99602.38;4997791;28;20660;-44
2023/12/26 01:42:32;;;;;;;7.60;1.48;;;;;;;7.26;100.00;99601.50;5002342;28;20205;-44
2023/12/26 01:45:00;;;;;;;9.02;2.13;;;;;;;7.26;100.00;99597.06;5001389;28;20177;-45
2023/12/26 01:47:26;;;;;;;6.07;1.80;;;;;;;7.30;100.00;99619.06;4999965;28;20184;-45
2023/12/26 01:49:52;;;;;;;4.68;1.77;;;;;;;7.29;100.00;99612.88;5002041;28;20188;-45
2023/12/26 01:52:20;;;;;;;4.47;1.60;;;;;;;7.28;100.00;99612.94;4999650;28;20211;-46
2023/12/26 01:54:47;;;;;;;6.60;1.67;;;;;;;7.23;100.00;99608.69;5002334;28;20675;-43
2023/12/26 01:57:12;;;;;;;7.55;2.08;;;;;;;7.23;100.00;99616.66;5001223;28;20207;-44
2023/12/26 01:59:39;;;;;;;4.45;1.27;;;;;;;7.24;100.00;99606.91;4998787;28;20192;-44
2023/12/26 02:02:05;;;;;;;6.90;1.95;;;;;;;7.22;100.00;99617.63;5004893;28;20200;-46
2023/12/26 02:04:31;;;;;;;6.43;1.40;;;;;;;7.27;100.00;99613.91;5004588;28;20177;-43
2023/12/26 02:06:58;;;;;;;6.30;1.75;;;;;;;7.25;100.00;99595.31;5003856;28;20649;-42
2023/12/26 02:09:24;;;;;;;5.47;1.55;;;;;;;7.30;100.00;99608.41;4999340;28;20235;-44
2023/12/26 02:11:54;;;;;;;3.15;1.30;;;;;;;7.29;100.00;99604.03;4998686;28;20220;-44
2023/12/26 02:14:21;;;;;;;5.05;1.40;;;;;;;7.30;100.00;99598.63;4997452;28;20199;-45
2023/12/26 02:16:49;;;;;;;5.72;1.23;;;;;;;7.35;100.00;99603.78;5002036;28;20250;-43
2023/12/26 02:19:15;;;;;;;5.15;1.33;;;;;;;7.35;100.00;99603.78;4998122;28;20189;-46
2023/12/26 02:21:41;;;;;;;7.22;1.58;;;;;;;7.39;100.00;99606.22;4997966;28;20572;-45
2023/12/26 02:24:07;;;;;;;7.43;1.83;;;;;;;7.41;100.00;99585.69;4999891;28;20208;-45
2023/12/26 02:26:38;;;;;;;6.43;1.60;;;;;;;7.43;100.00;99588.28;5001203;28;20185;-44
2023/12/26 02:29:06;;;;;;;4.93;1.40;;;;;;;7.45;100.00;99591.75;5004010;28;20211;-44
2023/12/26 02:31:34;;;;;;;7.25;1.65;;;;;;;7.39;100.00;99589.34;4998562;28;20204;-45
2023/12/26 02:34:00;;;;;;;4.15;1.38;;;;;;;7.45;100.00;99590.88;5001153;28;20204;-46
2023/12/26 02:36:26;;;;;;;8.65;1.83;;;;;;;7.42;100.00;99594.56;4999201;28;20221;-46
2023/12/26 02:38:52;;;;;;;7.28;1.80;;;;;;;7.40;100.00;99578.63;4998866;28;20562;-46
2023/12/26 02:41:17;;;;;;;6.82;1.92;;;;;;;7.39;100.00;99586.69;5006055;28;20738;-45
2023/12/26 02:43:43;;;;;;;5.60;1.98;;;;;;;7.42;100.00;99583.91;5004586;28;20252;-44
2023/12/26 02:46:08;;;;;;;4.68;1.50;;;;;;;7.42;100.00;99574.09;5004043;28;20659;-43
2023/12/26 02:48:35;;;;;;;9.30;2.05;;;;;;;7.49;100.00;99573.81;5002287;28;20251;-43
2023/12/26 02:51:02;;;;;;;8.18;1.85;;;;;;;7.43;100.00;99575.84;5006411;28;20200;-43
2023/12/26 02:53:28;;;;;;;8.02;1.70;;;;;;;7.47;100.00;99583.69;4998558;28;20255;-43
2023/12/26 02:55:53;;;;;;;7.25;1.70;;;;;;;7.50;100.00;99581.75;5003864;28;20208;-41
2023/12/26 02:58:20;;;;;;;6.78;1.83;;;;;;;7.56;100.00;99585.91;5003718;28;20590;-40
2023/12/26 03:00:47;;;;;;;7.57;1.88;;;;;;;7.52;100.00;99584.31;5008964;28;20192;-40
2023/12/26 03:03:12;;;;;;;6.30;1.95;;;;;;;7.52;100.00;99601.22;5004004;28;20213;-39
2023/12/26 03:05:38;;;;;;;8.93;1.90;;;;;;;7.54;100.00;99598.44;5001940;28;20227;-41
2023/12/26 03:08:04;;;;;;;9.98;1.90;;;;;;;7.52;100.00;99609.19;5006071;28;20672;-43
2023/12/26 03:10:29;;;;;;;5.90;2.08;;;;;;;7.53;100.00;99591.41;5004806;28;20516;-42
2023/12/26 03:12:55;;;;;;;6.60;1.77;;;;;;;7.52;100.00;99595.00;5007684;28;20789;-42
2023/12/26 03:15:21;;;;;;;7.60;2.17;;;;;;;7.58;100.00;99586.72;5007134;28;20265;-40
2023/12/26 03:17:48;;;;;;;12.57;2.10;;;;;;;7.55;100.00;99578.88;5009074;28;20212;-41
2023/12/26 03:20:14;;;;;;;13.38;2.33;;;;;;;7.48;100.00;99591.63;5002977;28;20330;-42
2023/12/26 03:22:40;;;;;;;8.73;2.63;;;;;;;7.49;100.00;99584.47;5012621;28;20201;-41
2023/12/26 03:25:08;;;;;;;13.82;2.42;;;;;;;7.49;100.00;99585.34;5004707;28;20198;-44
2023/12/26 03:27:34;;;;;;;16.92;2.78;;;;;;;7.42;100.00;99579.41;5006434;28;20267;-44
2023/12/26 03:30:00;;;;;;;15.25;2.47;;;;;;;7.44;100.00;99587.34;5002371;28;20528;-41
2023/12/26 03:32:25;;;;;;;17.10;2.95;;;;;;;7.52;100.00;99589.66;5008341;28;20706;-42
2023/12/26 03:34:51;;;;;;;14.77;2.67;;;;;;;7.50;100.00;99571.09;5008743;28;20192;-42
2023/12/26 03:37:17;;;;;;;12.82;2.38;;;;;;;7.49;100.00;99585.34;5008549;28;20220;-44
2023/12/26 03:39:43;;;;;;;16.20;2.72;;;;;;;7.50;100.00;99580.88;5001438;28;20251;-41
2023/12/26 03:42:08;;;;;;;13.27;3.08;;;;;;;7.59;100.00;99581.31;5000365;28;20201;-44
2023/12/26 03:44:35;;;;;;;13.45;2.97;;;;;;;7.52;100.00;99581.66;4988751;28;20185;-42
2023/12/26 03:47:01;;;;;;;11.85;2.60;;;;;;;7.51;100.00;99580.81;4998939;28;20213;-44
2023/12/26 03:49:26;;;;;;;14.20;2.72;;;;;;;7.51;100.00;99580.81;5005827;28;20216;-40
2023/12/26 03:51:52;;;;;;;21.92;2.80;;;;;;;7.51;100.00;99588.81;5008263;28;20199;-41
2023/12/26 03:54:19;;;;;;;13.43;2.80;;;;;;;7.49;100.00;99561.34;5005521;28;20184;-42
2023/12/26 03:56:45;;;;;;;19.77;2.85;;;;;;;7.43;100.00;99559.84;5004252;28;20184;-41
2023/12/26 03:59:11;;;;;;;17.88;3.60;;;;;;;7.48;100.00;99564.97;5002103;28;20632;-44
2023/12/26 04:01:37;;;;;;;23.20;3.10;;;;;;;7.61;100.00;99586.59;5004065;28;20275;-41
2023/12/26 04:04:03;;;;;;;16.83;2.58;;;;;;;7.52;100.00;99587.88;4999695;28;20216;-42
2023/12/26 04:06:29;;;;;;;15.38;2.90;;;;;;;7.45;100.00;99583.75;5007874;28;20183;-45
2023/12/26 04:08:54;;;;;;;18.23;3.38;;;;;;;7.40;100.00;99585.75;5005577;28;20184;-43
2023/12/26 04:11:21;;;;;;;18.55;3.00;;;;;;;7.34;100.00;99592.22;5002727;28;20197;-43
2023/12/26 04:13:46;;;;;;;22.88;3.45;;;;;;;7.31;100.00;99592.38;5011949;28;20475;-42
2023/12/26 04:16:12;;;;;;;21.45;3.22;;;;;;;7.33;100.00;99594.97;5000849;28;20219;-42
2023/12/26 04:18:38;;;;;;;27.65;3.35;;;;;;;7.28;100.00;99596.97;5002177;28;20396;-42
2023/12/26 04:21:04;;;;;;;22.67;3.17;;;;;;;7.19;100.00;99595.56;5010398;28;20729;-44
2023/12/26 04:23:31;;;;;;;21.52;3.15;;;;;;;7.18;100.00;99602.69;5005855;28;20291;-41
2023/12/26 04:25:56;;;;;;;27.30;3.85;;;;;;;7.20;100.00;99606.16;5006400;28;20273;-43
2023/12/26 04:28:23;;;;;;;23.45;3.55;;;;;;;7.14;100.00;99609.09;5001350;28;20185;-41
2023/12/26 04:30:49;;;;;;;21.73;3.35;;;;;;;7.34;100.00;99607.34;5008249;28;20184;-46
2023/12/26 04:33:15;;;;;;;27.40;4.03;;;;;;;7.18;100.00;99617.81;5006206;28;20229;-41
2023/12/26 04:35:41;;;;;;;26.67;4.00;;;;;;;7.21;100.00;99618.56;4998158;28;20185;-44
2023/12/26 04:38:07;;;;;;;23.13;3.63;;;;;;;7.26;100.00;99612.16;4999221;28;20196;-44
2023/12/26 04:40:32;;;;;;;16.00;3.47;;;;;;;7.21;100.00;99623.00;4999271;28;20173;-41
2023/12/26 04:43:08;;;;;;;23.42;3.55;;;;;;;7.22;100.00;99622.09;5007704;28;20282;-43
2023/12/26 04:45:36;;;;;;;24.02;3.95;;;;;;;7.22;100.00;99622.09;4999125;28;20184;-42
2023/12/26 04:48:07;;;;;;;21.67;3.75;;;;;;;7.26;100.00;99626.34;5005921;28;20335;-41
2023/12/26 04:50:34;;;;;;;21.25;3.60;;;;;;;7.28;100.00;99629.81;5000943;28;20518;-41
2023/12/26 04:53:04;;;;;;;24.38;3.55;;;;;;;7.30;100.00;99635.91;5003617;28;20215;-43
2023/12/26 04:55:31;;;;;;;20.73;3.85;;;;;;;7.25;100.00;99626.41;5000711;28;20188;-43
2023/12/26 04:57:57;;;;;;;21.02;4.05;;;;;;;7.28;100.00;99635.16;5001312;28;20509;-41
2023/12/26 05:00:22;;;;;;;23.35;3.72;;;;;;;7.26;100.00;99639.69;5001237;28;20215;-42
2023/12/26 05:02:48;;;;;;;21.42;3.70;;;;;;;7.26;100.00;99633.44;5005705;28;20291;-42
2023/12/26 05:05:14;;;;;;;27.23;4.53;;;;;;;7.31;100.00;99624.34;5006078;28;20191;-42
2023/12/26 05:07:39;;;;;;;20.15;3.95;;;;;;;7.32;100.00;99615.41;5005474;28;20219;-42
2023/12/26 05:10:06;;;;;;;14.75;3.10;;;;;;;7.36;100.00;99654.31;5017559;22;20310;-41
2023/12/26 05:12:31;;;;;;;22.85;4.20;;;;;;;7.27;100.00;99656.53;4999599;28;20266;-44
2023/12/26 05:14:57;;;;;;;21.73;4.03;;;;;;;7.25;100.00;99659.25;4995065;28;20211;-43
2023/12/26 05:17:22;;;;;;;16.20;4.55;;;;;;;7.21;100.00;99649.66;4997712;28;20224;-40
2023/12/26 05:19:48;;;;;;;24.05;4.22;;;;;;;7.18;100.00;99661.31;5000850;28;20192;-42
2023/12/26 05:22:14;;;;;;;20.42;3.83;;;;;;;7.12;100.00;99656.22;5005346;28;20216;-42
2023/12/26 05:24:40;;;;;;;26.15;4.88;;;;;;;7.13;100.00;99667.78;4998864;28;20177;-41
2023/12/26 05:27:06;;;;;;;21.92;3.78;;;;;;;7.14;100.00;99665.03;5001199;28;20681;-43
2023/12/26 05:29:31;;;;;;;19.33;3.47;;;;;;;7.13;100.00;99662.44;5002871;28;20180;-41
2023/12/26 05:31:57;;;;;;;24.10;4.22;;;;;;;7.14;100.00;99672.16;5002299;28;20223;-44
2023/12/26 05:34:23;;;;;;;24.45;4.45;;;;;;;7.10;100.00;99686.53;5001409;28;20205;-41
2023/12/26 05:36:48;;;;;;;18.08;3.83;;;;;;;7.03;100.00;99679.75;4998496;28;20235;-43
2023/12/26 05:39:14;;;;;;;25.42;3.65;;;;;;;7.04;100.00;99678.78;4999357;28;20255;-41
2023/12/26 05:41:43;;;;;;;27.13;4.53;;;;;;;7.04;100.00;99677.03;5005825;28;20180;-42
2023/12/26 05:44:09;;;;;;;23.67;4.18;;;;;;;7.08;100.00;99669.75;5014760;28;20200;-42
2023/12/26 05:46:35;;;;;;;18.02;3.83;;;;;;;7.07;100.00;99665.38;5006198;28;20195;-41
2023/12/26 05:49:01;;;;;;;31.45;5.00;;;;;;;7.06;100.00;99675.13;5003235;28;20185;-41
2023/12/26 05:51:26;;;;;;;22.80;3.80;;;;;;;7.00;100.00;99678.94;5005440;28;20192;-40
2023/12/26 05:53:52;;;;;;;30.98;4.88;;;;;;;7.01;100.00;99696.63;4987768;28;20208;-40
2023/12/26 05:56:19;;;;;;;28.95;4.43;;;;;;;7.05;100.00;99680.53;5003501;28;20185;-42
2023/12/26 05:58:45;;;;;;;24.23;5.40;;;;;;;7.01;100.00;99688.66;5002036;28;20380;-43
2023/12/26 06:01:11;;;;;;;24.13;3.80;;;;;;;6.96;100.00;99682.66;5002300;28;20658;-42
2023/12/26 06:03:38;;;;;;;25.98;4.93;;;;;;;7.05;100.00;99688.53;4999316;28;20208;-43
2023/12/26 06:06:08;;;;;;;17.90;4.47;;;;;;;7.08;100.00;99686.59;5005189;28;20187;-43
2023/12/26 06:08:34;;;;;;;19.85;4.50;;;;;;;7.03;100.00;99685.94;5003496;28;20172;-42
2023/12/26 06:11:00;;;;;;;25.95;4.05;;;;;;;6.93;100.00;99696.13;5001612;28;20181;-43
2023/12/26 06:13:27;;;;;;;21.27;3.58;;;;;;;7.03;100.00;99687.72;5002897;28;20205;-42
2023/12/26 06:15:53;;;;;;;24.23;4.20;;;;;;;6.93;100.00;99690.78;5001878;28;20185;-42
2023/12/26 06:18:19;;;;;;;23.83;3.80;;;;;;;7.10;100.00;99691.84;5003605;28;20207;-43
2023/12/26 06:20:44;;;;;;;23.92;4.53;;;;;;;6.99;100.00;99694.97;4998432;28;20177;-41
2023/12/26 06:23:10;;;;;;;21.10;4.07;;;;;;;6.98;100.00;99691.44;4996760;28;20683;-43
2023/12/26 06:25:36;;;;;;;18.13;3.33;;;;;;;6.99;100.00;99702.97;4998568;28;20189;-44
2023/12/26 06:28:02;;;;;;;19.67;4.15;;;;;;;6.93;100.00;99695.22;5005469;28;20178;-40
2023/12/26 06:30:29;;;;;;;19.95;4.30;;;;;;;6.93;100.00;99720.06;4996185;28;20378;-41
2023/12/26 06:32:55;;;;;;;25.85;4.53;;;;;;;6.98;100.00;99699.44;4999603;28;20196;-42
2023/12/26 06:35:21;;;;;;;22.67;3.45;;;;;;;7.00;100.00;99720.69;4999778;28;20176;-42
2023/12/26 06:37:47;;;;;;;21.85;4.28;;;;;;;7.13;100.00;99718.38;4999709;28;20224;-40
2023/12/26 06:40:13;;;;;;;28.13;4.00;;;;;;;7.06;100.00;99725.72;5001185;28;20569;-40
2023/12/26 06:42:39;;;;;;;30.00;4.68;;;;;;;7.02;100.00;99713.50;5004479;28;20549;-40
2023/12/26 06:45:06;;;;;;;26.08;4.35;;;;;;;7.05;100.00;99731.16;4998305;28;20284;-42
2023/12/26 06:47:32;;;;;;;25.48;4.32;;;;;;;7.12;100.00;99721.97;5004741;28;20180;-40
2023/12/26 06:49:58;;;;;;;24.20;4.47;;;;;;;7.11;100.00;99729.09;5004367;28;20192;-43
2023/12/26 06:52:24;;;;;;;23.75;4.38;;;;;;;7.09;100.00;99730.09;4999433;28;20197;-43
2023/12/26 06:54:49;;;;;;;18.55;4.15;;;;;;;7.06;100.00;99738.19;5001843;28;20242;-43
2023/12/26 06:57:15;;;;;;;23.98;4.93;;;;;;;7.01;100.00;99739.25;5003647;28;20189;-44
2023/12/26 06:59:43;;;;;;;20.17;3.65;;;;;;;7.05;100.00;99741.81;5004421;28;20258;-42
2023/12/26 07:02:09;;;;;;;20.58;4.20;;;;;;;7.17;100.00;99743.94;5001632;28;20205;-42
2023/12/26 07:04:35;;;;;;;20.00;3.78;;;;;;;7.09;100.00;99746.06;5001920;28;20192;-43
2023/12/26 07:07:00;;;;;;;18.45;3.92;;;;;;;7.10;100.00;99748.66;4999465;28;20196;-42
2023/12/26 07:09:26;;;;;;;18.35;3.45;;;;;;;7.16;100.00;99759.06;4999522;28;20252;-41
2023/12/26 07:11:51;;;;;;;21.77;4.20;;;;;;;7.18;100.00;99761.66;4999186;28;20681;-42
2023/12/26 07:14:18;;;;;;;13.90;3.08;;;;;;;7.10;100.00;99758.44;5001390;28;20189;-44
2023/12/26 07:16:43;;;;;;;16.98;3.47;;;;;;;7.06;100.00;99771.00;5001585;28;20746;-42
2023/12/26 07:19:09;;;;;;;25.45;4.40;;;;;;;7.17;100.00;99770.56;4998787;28;20351;-42
2023/12/26 07:21:34;;;;;;;17.13;3.90;;;;;;;7.10;100.00;99771.75;5005029;28;20358;-41
2023/12/26 07:24:00;;;;;;;18.70;3.22;;;;;;;7.07;100.00;99772.75;5005172;28;20209;-43
2023/12/26 07:26:26;;;;;;;17.67;4.00;;;;;;;7.06;100.00;99767.50;5005365;28;20185;-42
2023/12/26 07:28:51;;;;;;;19.65;3.55;;;;;;;7.05;100.00;99790.59;5002093;28;20180;-43
2023/12/26 07:31:20;;;;;;;19.08;3.72;;;;;;;7.03;100.00;99789.78;5001795;28;20196;-42
2023/12/26 07:33:47;;;;;;;16.65;4.35;;;;;;;7.07;100.00;99804.72;5007468;28;20269;-42
2023/12/26 07:36:13;;;;;;;17.55;3.40;;;;;;;7.12;100.00;99802.72;5005220;28;20579;-41
2023/12/26 07:38:39;;;;;;;19.45;3.05;;;;;;;6.99;100.00;99812.16;5004964;28;20264;-44
2023/12/26 07:41:04;;;;;;;18.30;3.60;;;;;;;6.95;100.00;99818.50;5006731;28;20185;-42
2023/12/26 07:43:30;;;;;;;18.02;3.15;;;;;;;6.98;100.00;99811.28;5002499;28;20201;-41
2023/12/26 07:45:56;;;;;;;23.42;3.35;;;;;;;6.79;100.00;99834.22;5002373;28;20671;-41
2023/12/26 07:48:21;;;;;;;18.20;3.28;;;;;;;6.66;100.00;99839.16;5003883;28;20247;-42
2023/12/26 07:50:47;;;;;;;19.02;3.63;;;;;;;6.63;100.00;99843.75;5003396;28;20184;-42
2023/12/26 07:53:13;;;;;;;19.67;3.90;;;;;;;6.63;100.00;99838.41;5001992;28;20264;-40
2023/12/26 07:55:38;;;;;;;19.10;3.67;;;;;;;6.67;100.00;99853.31;5005107;28;20169;-41
2023/12/26 07:58:05;;;;;;;21.05;3.65;;;;;;;6.74;100.00;99853.03;5003262;28;20209;-41
2023/12/26 08:00:30;;;;;;;15.55;3.58;;;;;;;6.76;100.00;99850.34;5002848;28;20227;-41
2023/12/26 08:02:56;;;;;;;21.30;3.83;;;;;;;6.85;100.00;99851.78;5000291;28;20220;-41
2023/12/26 08:05:22;;;;;;;18.63;3.70;;;;;;;6.87;100.00;99850.78;5007026;28;20183;-41
2023/12/26 08:07:47;;;;;;;21.95;4.32;;;;;;;6.95;100.00;99854.03;5001148;28;20184;-43
2023/12/26 08:10:13;;;;;;;21.00;4.15;;;;;;;6.91;100.00;99849.75;5002595;28;20671;-42
2023/12/26 08:12:38;;;;;;;21.63;3.47;;;;;;;6.96;100.00;99854.88;5001382;28;20695;-43
2023/12/26 08:15:04;;;;;;;24.38;5.05;;;;;;;6.96;100.00;99861.06;5005093;28;20188;-43
2023/12/26 08:17:30;;;;;;;20.02;4.60;;;;;;;7.00;100.00;99865.34;5000097;28;20263;-42
2023/12/26 08:19:56;;;;;;;16.67;4.07;;;;;;;7.02;100.00;99889.28;5004200;28;20180;-41
2023/12/26 08:22:21;;;;;;;16.00;3.10;;;;;;;7.03;100.00;99868.81;5001922;28;20209;-42
2023/12/26 08:24:48;;;;;;;19.15;3.65;;;;;;;6.99;100.00;99884.03;5001486;28;20315;-42
2023/12/26 08:27:13;;;;;;;14.25;2.83;;;;;;;6.96;100.00;99878.84;5001027;28;20796;-40
2023/12/26 08:29:39;;;;;;;14.43;2.90;;;;;;;6.97;100.00;99864.59;5002284;28;20181;-42
2023/12/26 08:32:04;;;;;;;15.98;3.35;;;;;;;6.97;100.00;99884.09;5008094;28;20176;-43
2023/12/26 08:34:30;;;;;;;17.17;3.45;;;;;;;6.88;100.00;99903.09;5012449;28;20580;-39
2023/12/26 08:36:56;;;;;;;10.70;2.83;;;;;;;6.89;100.00;99904.84;5008710;28;20204;-44
2023/12/26 08:39:21;;;;;;;17.45;3.08;;;;;;;6.96;100.00;99901.00;5008337;28;20201;-41
2023/12/26 08:41:47;;;;;;;20.50;2.80;;;;;;;6.87;100.00;99912.03;5012019;28;20196;-41
2023/12/26 08:44:13;;;;;;;13.88;3.38;;;;;;;6.93;100.00;99908.25;5012396;28;20550;-41
2023/12/26 08:46:39;;;;;;;19.85;3.38;;;;;;;6.98;100.00;99904.50;5012021;28;20185;-42
2023/12/26 08:49:05;;;;;;;12.63;3.20;;;;;;;7.06;100.00;99896.19;5011066;28;20227;-41
2023/12/26 08:51:31;;;;;;;14.63;3.28;;;;;;;7.18;100.00;99917.03;5012561;28;20192;-41
2023/12/26 08:53:57;;;;;;;20.35;3.20;;;;;;;7.14;100.00;99910.09;5012258;28;20201;-41
2023/12/26 08:56:25;;;;;;;19.35;3.45;;;;;;;7.23;100.00;99920.38;5012332;28;20181;-40
2023/12/26 08:58:51;;;;;;;16.85;3.50;;;;;;;7.27;100.00;99933.59;5012156;28;20224;-42
2023/12/26 09:01:17;;;;;;;16.65;2.83;;;;;;;7.26;100.00;99916.75;5012306;28;20209;-43
2023/12/26 09:03:42;;;;;;;21.10;3.42;;;;;;;7.24;100.00;99923.94;5010573;28;20266;-41
2023/12/26 09:06:12;;;;;;;21.40;3.40;;;;;;;7.31;100.00;99928.09;5012010;28;20192;-41
2023/12/26 09:08:37;;;;;;;17.05;2.65;;;;;;;7.17;100.00;99939.28;5010705;28;20694;-41
2023/12/26 09:11:03;;;;;;;23.05;3.33;;;;;;;7.12;100.00;99927.91;5011758;28;20268;-42
2023/12/26 09:13:29;;;;;;;12.98;2.70;;;;;;;7.08;100.00;99960.06;5011734;28;20202;-39
2023/12/26 09:15:58;;;;;;;14.45;3.10;;;;;;;6.95;100.00;99951.66;5011688;28;20556;-41
2023/12/26 09:18:23;;;;;;;13.02;3.22;;;;;;;6.92;100.00;99979.28;5011377;28;20297;-42
2023/12/26 09:20:49;;;;;;;14.07;3.15;;;;;;;6.87;100.00;99989.25;5007900;28;20667;-44
2023/12/26 09:23:14;;;;;;;20.85;3.28;;;;;;;6.86;100.00;99987.47;5009969;28;20192;-42
2023/12/26 09:25:40;;;;;;;15.98;2.88;;;;;;;6.91;100.00;99988.22;5011000;28;20549;-41
2023/12/26 09:28:08;;;;;;;16.63;3.33;;;;;;;6.87;100.00;99985.72;5011013;28;20173;-41
2023/12/26 09:30:34;;;;;;;16.65;3.47;;;;;;;6.89;100.00;99995.38;5010692;28;20176;-41
2023/12/26 09:33:00;;;;;;;23.67;3.65;;;;;;;6.88;100.00;100011.41;5010715;28;20579;-43
2023/12/26 09:35:25;;;;;;;23.40;3.60;;;;;;;6.86;100.00;99999.94;5010702;28;20656;-42
2023/12/26 09:37:51;;;;;;;15.75;3.33;;;;;;;6.83;100.00;100000.91;5010794;28;20208;-41
2023/12/26 09:40:18;;;;;;;20.10;3.28;;;;;;;6.86;100.00;100022.09;5004015;28;20558;-40
2023/12/26 09:42:44;;;;;;;14.25;3.13;;;;;;;6.90;100.00;100010.41;5009336;28;20708;-42
2023/12/26 09:45:13;;;;;;;17.67;3.33;;;;;;;6.98;100.00;100005.69;5010991;28;20177;-41
2023/12/26 09:47:42;;;;;;;22.92;3.58;;;;;;;6.96;100.00;100007.53;5011282;28;20184;-41
2023/12/26 09:50:09;;;;;;;20.00;3.40;;;;;;;7.03;100.00;100002.84;5011292;28;20635;-41
2023/12/26 09:52:35;;;;;;;16.95;3.15;;;;;;;7.09;100.00;100001.78;5010941;28;20303;-42
2023/12/26 09:55:02;;;;;;;21.45;3.30;;;;;;;7.17;100.00;100007.66;5010877;28;20268;-42
2023/12/26 09:57:29;;;;;;;17.63;2.88;;;;;;;7.26;100.00;99999.34;5011016;28;20234;-40
2023/12/26 09:59:55;;;;;;;20.38;2.90;;;;;;;7.29;100.00;100004.53;5007783;28;20250;-41
2023/12/26 10:02:21;;;;;;;19.48;2.97;;;;;;;7.33;100.00;100011.50;5000871;28;20200;-44
2023/12/26 10:04:47;;;;;;;18.42;3.00;;;;;;;7.41;100.00;99998.75;5006872;28;20342;-41
2023/12/26 10:07:18;;;;;;;17.05;3.65;;;;;;;7.38;100.00;100000.66;5007355;28;20603;-45
2023/12/26 10:09:44;;;;;;;16.00;3.22;;;;;;;7.33;100.00;100014.16;5005231;28;20180;-43
2023/12/26 10:12:10;;;;;;;19.13;3.30;;;;;;;7.22;100.00;100011.91;5002504;28;20829;-44
2023/12/26 10:14:36;;;;;;;21.35;3.15;;;;;;;6.94;100.00;100011.19;5006132;28;20234;-43
2023/12/26 10:17:03;;;;;;;19.58;4.18;;;;;;;6.91;100.00;100019.25;5006528;28;20191;-42
2023/12/26 10:19:29;;;;;;;21.98;3.83;;;;;;;6.82;100.00;100033.78;5007935;28;20311;-43
2023/12/26 10:21:54;;;;;;;18.88;3.58;;;;;;;6.73;100.00;100034.13;5006609;28;20701;-43
2023/12/26 10:24:21;;;;;;;26.05;4.53;;;;;;;6.69;100.00;100052.00;5005304;28;20212;-43
2023/12/26 10:26:47;;;;;;;27.38;4.50;;;;;;;6.76;100.00;100044.66;5004745;28;20246;-43
2023/12/26 10:29:16;;;;;;;20.63;3.67;;;;;;;6.78;100.00;100043.69;5007376;28;20184;-43
2023/12/26 10:31:43;;;;;;;31.05;5.43;;;;;;;6.88;100.00;100054.88;5008165;28;20208;-45
2023/12/26 10:34:13;;;;;;;31.80;4.82;;;;;;;6.91;100.00;100032.59;5005776;28;20196;-45
2023/12/26 10:36:44;;;;;;;29.35;4.55;;;;;;;7.03;100.00;100063.25;5005352;28;20637;-43
2023/12/26 10:39:11;;;;;;;27.95;4.47;;;;;;;7.09;100.00;100063.91;5004470;28;20316;-43
2023/12/26 10:41:42;;;;;;;21.83;3.72;;;;;;;7.21;100.00;100054.56;5003810;28;20211;-44
2023/12/26 10:44:09;;;;;;;25.15;4.80;;;;;;;7.09;100.00;100063.03;5005254;28;20207;-43
2023/12/26 10:46:35;;;;;;;22.60;4.25;;;;;;;7.09;100.00;100073.69;5005740;28;20181;-43
2023/12/26 10:49:05;;;;;;;20.20;3.17;;;;;;;7.11;100.00;100088.69;4998950;28;20193;-45
2023/12/26 10:51:32;;;;;;;22.63;3.95;;;;;;;7.23;100.00;100074.03;5002059;28;20212;-41
2023/12/26 10:54:21;;;;;;;26.42;4.25;;;;;;;7.21;100.00;100058.13;5002690;28;20212;-43
2023/12/26 10:56:51;;;;;;;29.48;4.55;;;;;;;7.25;100.00;100072.19;4995722;28;20201;-44
2023/12/26 13:52:12;;;;;;;1.77;0.43;;;;;;;5.65;100.00;100486.75;5001962;28;20279;-43
2023/12/26 13:54:38;;;;;;;1.88;0.60;;;;;;;5.71;100.00;100501.72;5002796;28;20205;-42
2023/12/26 13:57:03;;;;;;;3.03;0.88;;;;;;;5.74;100.00;100494.50;4998302;28;20189;-44
2023/12/26 13:59:28;;;;;;;1.60;0.90;;;;;;;5.64;100.00;100497.41;5002845;28;20280;-43
2023/12/26 14:01:54;;;;;;;1.13;0.60;;;;;;;5.67;100.00;100508.00;5006903;28;20196;-42
2023/12/26 14:04:19;;;;;;;2.00;1.00;;;;;;;5.54;100.00;100513.59;5002042;28;20176;-44
2023/12/26 14:06:46;;;;;;;3.83;0.98;;;;;;;5.48;100.00;100510.19;5006332;28;20185;-43
2023/12/26 14:09:13;;;;;;;3.50;0.80;;;;;;;5.50;100.00;100522.53;5003035;28;20276;-43
2023/12/26 14:11:38;;;;;;;1.38;0.45;;;;;;;5.44;100.00;100525.31;4998459;28;20192;-42
2023/12/26 14:14:03;;;;;;;3.22;0.40;;;;;;;5.54;100.00;100533.97;5004961;28;20216;-42